Time;durP1;ratioP1;P1;durP2;ratioP2;P2;SDS_P1;SDS_P2;PMS_P1;PMS_P2;Temp;Humidity;BMP_temperature;BMP_pressure;BME280_temperature;BME280_humidity;BME280_pressure;Samples;Min_cycle;Max_cycle;Signal;HPM_P1;HPM_P2
2021/10/21 00:00:28;;;;;;;221.23;116.93;;;10.20;99.90;;;;;;5032638;28;20053;-78
2021/10/21 00:02:54;;;;;;;164.10;89.25;;;10.20;99.90;;;;;;5029454;28;20065;-78
2021/10/21 00:05:20;;;;;;;176.20;92.10;;;10.10;99.90;;;;;;5012891;28;20022;-78
2021/10/21 00:07:45;;;;;;;154.90;79.63;;;10.00;99.90;;;;;;5014051;28;20112;-78
2021/10/21 00:10:12;;;;;;;103.45;52.45;;;10.00;99.90;;;;;;5012600;28;20472;-78
2021/10/21 00:12:38;;;;;;;159.15;76.30;;;10.00;99.90;;;;;;5014009;28;20030;-78
2021/10/21 00:15:07;;;;;;;119.45;61.67;;;10.00;99.90;;;;;;5017268;28;20104;-78
2021/10/21 00:17:32;;;;;;;107.95;58.28;;;10.00;99.90;;;;;;5033710;28;20022;-78
2021/10/21 00:19:58;;;;;;;52.25;30.15;;;10.00;99.90;;;;;;5022833;28;20079;-78
2021/10/21 00:22:24;;;;;;;54.15;29.08;;;10.00;99.90;;;;;;5012576;28;20033;-78
2021/10/21 00:24:49;;;;;;;102.82;49.90;;;10.00;99.90;;;;;;5014760;28;20495;-78
2021/10/21 00:27:15;;;;;;;69.13;35.10;;;9.90;99.90;;;;;;5012490;28;20021;-78
2021/10/21 00:29:40;;;;;;;53.75;32.05;;;9.90;99.90;;;;;;5012368;28;20026;-79
2021/10/21 00:32:06;;;;;;;46.65;27.55;;;9.80;99.90;;;;;;5013587;28;20030;-79
2021/10/21 00:34:32;;;;;;;35.22;23.35;;;9.70;99.90;;;;;;5012314;28;20487;-79
2021/10/21 00:36:58;;;;;;;43.30;26.42;;;9.80;99.90;;;;;;5013606;28;20061;-79
2021/10/21 00:39:23;;;;;;;38.40;24.00;;;9.70;99.90;;;;;;5012301;28;20024;-79
2021/10/21 00:41:49;;;;;;;37.13;23.17;;;9.80;99.90;;;;;;5012219;28;20026;-78
2021/10/21 00:44:19;;;;;;;35.00;21.70;;;9.70;99.90;;;;;;5014381;28;20037;-78
2021/10/21 00:46:45;;;;;;;32.83;22.08;;;9.70;99.90;;;;;;5012181;28;20112;-78
2021/10/21 00:49:11;;;;;;;24.55;19.52;;;9.60;99.90;;;;;;5012127;28;20157;-78
2021/10/21 00:51:38;;;;;;;28.45;20.92;;;9.50;99.90;;;;;;5012089;28;20033;-78
2021/10/21 00:54:04;;;;;;;24.50;17.88;;;9.40;99.90;;;;;;5022258;28;20022;-78
2021/10/21 00:56:30;;;;;;;24.08;17.80;;;9.40;99.90;;;;;;5031723;28;20502;-78
2021/10/21 00:58:56;;;;;;;21.58;15.63;;;9.40;99.90;;;;;;5031667;28;20025;-78
2021/10/21 01:01:23;;;;;;;22.02;16.70;;;9.40;99.90;;;;;;5019378;28;20077;-78
2021/10/21 01:03:50;;;;;;;24.75;17.38;;;9.40;99.90;;;;;;5016114;28;20021;-77
2021/10/21 01:06:17;;;;;;;24.77;17.67;;;9.40;99.90;;;;;;5021519;28;20018;-78
2021/10/21 01:08:43;;;;;;;26.85;17.85;;;9.40;99.90;;;;;;5029474;28;20028;-78
2021/10/21 01:11:09;;;;;;;25.40;16.63;;;9.30;99.90;;;;;;5022390;28;20026;-78
2021/10/21 01:13:35;;;;;;;24.35;17.08;;;9.30;99.90;;;;;;5013663;28;20518;-78
2021/10/21 01:16:06;;;;;;;20.02;16.33;;;9.20;99.90;;;;;;5016863;28;20026;-78
2021/10/21 01:18:32;;;;;;;20.27;14.88;;;9.20;99.90;;;;;;5011797;28;20068;-78
2021/10/21 01:20:59;;;;;;;23.70;16.52;;;9.10;99.90;;;;;;5016670;28;20102;-78
2021/10/21 01:23:25;;;;;;;21.95;16.15;;;9.00;99.90;;;;;;5019486;28;20442;-78
2021/10/21 01:25:50;;;;;;;25.83;18.25;;;9.00;99.90;;;;;;5013526;28;20029;-78
2021/10/21 01:28:16;;;;;;;47.03;21.83;;;8.90;99.90;;;;;;5013104;28;20053;-78
2021/10/21 01:30:42;;;;;;;26.98;17.88;;;8.90;99.90;;;;;;5011632;28;20515;-78
2021/10/21 01:33:07;;;;;;;41.28;24.35;;;8.80;99.90;;;;;;5012640;28;20120;-78
2021/10/21 01:35:33;;;;;;;32.67;18.35;;;8.80;99.90;;;;;;5012629;28;20032;-78
2021/10/21 01:37:59;;;;;;;26.85;17.52;;;8.80;99.90;;;;;;5013430;28;20022;-78
2021/10/21 01:40:25;;;;;;;25.30;16.08;;;8.70;99.90;;;;;;5019079;28;20384;-78
2021/10/21 01:42:50;;;;;;;32.55;16.98;;;8.70;99.90;;;;;;5011625;28;20022;-78
2021/10/21 01:45:22;;;;;;;27.88;17.40;;;8.70;99.90;;;;;;5016633;28;20057;-78
2021/10/21 01:47:49;;;;;;;21.23;13.53;;;8.70;99.90;;;;;;5032471;28;20018;-78
2021/10/21 01:50:17;;;;;;;20.90;14.35;;;8.70;99.90;;;;;;5032497;28;20260;-78
2021/10/21 01:52:42;;;;;;;30.45;18.58;;;8.60;99.90;;;;;;5032367;28;20044;-78
2021/10/21 01:55:09;;;;;;;20.88;15.07;;;8.60;99.90;;;;;;5032380;28;20025;-78
2021/10/21 01:57:36;;;;;;;18.73;13.57;;;8.50;99.90;;;;;;5032488;28;20014;-78
2021/10/21 02:00:13;;;;;;;16.45;12.73;;;8.50;99.90;;;;;;5018578;28;20479;-78
2021/10/21 02:02:39;;;;;;;21.23;13.25;;;8.50;99.90;;;;;;5012560;28;20029;-78
2021/10/21 02:05:06;;;;;;;23.92;15.15;;;8.50;99.90;;;;;;5026358;28;20026;-77
2021/10/21 02:07:32;;;;;;;25.42;14.65;;;8.50;99.90;;;;;;5013869;28;20030;-78
2021/10/21 02:09:58;;;;;;;22.73;15.20;;;8.40;99.90;;;;;;5011264;28;20014;-78
2021/10/21 02:12:24;;;;;;;24.02;15.45;;;8.40;99.90;;;;;;5011317;28;20038;-79
2021/10/21 02:14:49;;;;;;;21.10;14.75;;;8.40;99.90;;;;;;5029604;28;20117;-78
2021/10/21 02:17:15;;;;;;;18.08;13.50;;;8.40;99.90;;;;;;5031012;28;20018;-80
2021/10/21 02:19:41;;;;;;;20.45;15.10;;;8.30;99.90;;;;;;5030247;28;20364;-80
2021/10/21 02:22:07;;;;;;;18.45;13.23;;;8.30;99.90;;;;;;5032204;28;20021;-81
2021/10/21 02:24:33;;;;;;;21.58;13.80;;;8.30;99.90;;;;;;5030862;28;20026;-80
2021/10/21 02:26:59;;;;;;;19.35;13.65;;;8.30;99.90;;;;;;5033054;28;20018;-81
2021/10/21 02:29:25;;;;;;;19.95;13.77;;;8.20;99.90;;;;;;5035663;28;20032;-80
2021/10/21 02:31:51;;;;;;;17.45;12.75;;;8.20;99.90;;;;;;5035402;28;20109;-81
2021/10/21 02:34:16;;;;;;;20.30;14.70;;;8.20;99.90;;;;;;5034280;28;20038;-78
2021/10/21 02:36:42;;;;;;;20.38;13.95;;;8.20;99.90;;;;;;5035578;28;20029;-78
2021/10/21 02:39:08;;;;;;;21.13;14.75;;;8.10;99.90;;;;;;5035500;28;20092;-78
2021/10/21 02:41:34;;;;;;;20.00;13.88;;;8.10;99.90;;;;;;5034269;28;20029;-78
2021/10/21 02:43:59;;;;;;;20.50;12.48;;;8.10;99.90;;;;;;5033447;28;20029;-78
2021/10/21 02:46:25;;;;;;;19.20;12.68;;;8.10;99.90;;;;;;5033286;28;20029;-78
2021/10/21 02:48:51;;;;;;;19.25;12.77;;;8.00;99.90;;;;;;5015389;28;20030;-78
2021/10/21 02:51:17;;;;;;;19.77;13.30;;;7.90;99.90;;;;;;5015586;28;20052;-78
2021/10/21 02:53:42;;;;;;;20.73;14.73;;;7.90;99.90;;;;;;5014067;28;20124;-78
2021/10/21 02:56:08;;;;;;;20.77;14.90;;;7.80;99.90;;;;;;5015496;28;20030;-78
2021/10/21 02:58:34;;;;;;;21.55;14.57;;;7.70;99.90;;;;;;5014101;28;20036;-78
2021/10/21 03:00:59;;;;;;;22.02;14.60;;;7.80;99.90;;;;;;5015298;28;20133;-78
2021/10/21 03:03:25;;;;;;;18.73;13.95;;;7.80;99.90;;;;;;5015375;28;20104;-78
2021/10/21 03:05:51;;;;;;;21.02;14.20;;;7.90;99.90;;;;;;5013962;28;20492;-78
2021/10/21 03:08:16;;;;;;;25.40;14.80;;;7.90;99.90;;;;;;5013953;28;20376;-78
2021/10/21 03:10:42;;;;;;;20.95;13.45;;;7.90;99.90;;;;;;5013886;28;20026;-78
2021/10/21 03:13:08;;;;;;;18.70;13.63;;;7.90;99.90;;;;;;5015036;28;20523;-78
2021/10/21 03:15:33;;;;;;;24.17;14.15;;;7.80;99.90;;;;;;5031632;28;20360;-78
2021/10/21 03:17:59;;;;;;;20.80;13.77;;;7.80;99.90;;;;;;5034741;28;20022;-78
2021/10/21 03:20:25;;;;;;;24.75;13.20;;;7.80;99.90;;;;;;5033243;28;20116;-78
2021/10/21 03:22:51;;;;;;;20.00;13.30;;;7.70;99.90;;;;;;5024555;28;20034;-78
2021/10/21 03:25:17;;;;;;;25.20;15.10;;;7.70;99.90;;;;;;5013641;28;20044;-78
2021/10/21 03:27:43;;;;;;;24.13;15.32;;;7.60;99.90;;;;;;5014816;28;20022;-78
2021/10/21 03:30:10;;;;;;;28.30;15.80;;;7.60;99.90;;;;;;5013505;28;20021;-78
2021/10/21 03:32:37;;;;;;;28.17;15.27;;;7.50;99.90;;;;;;5015107;28;20087;-79
2021/10/21 03:35:03;;;;;;;32.63;16.77;;;7.50;99.90;;;;;;5034452;28;20033;-78
2021/10/21 03:37:29;;;;;;;27.98;15.35;;;7.50;99.90;;;;;;5033030;28;20029;-78
2021/10/21 03:39:55;;;;;;;27.63;16.05;;;7.50;99.90;;;;;;5034324;28;20025;-78
2021/10/21 03:42:22;;;;;;;25.67;14.23;;;7.50;99.90;;;;;;5032764;28;20029;-78
2021/10/21 03:44:49;;;;;;;24.17;14.98;;;7.40;99.90;;;;;;5034266;28;20028;-78
2021/10/21 03:47:15;;;;;;;22.17;13.35;;;7.40;99.90;;;;;;5034281;28;20026;-78
2021/10/21 03:49:41;;;;;;;21.73;13.80;;;7.30;99.90;;;;;;5034154;28;20042;-78
2021/10/21 03:52:07;;;;;;;25.63;16.70;;;7.30;99.90;;;;;;5034103;28;20029;-78
2021/10/21 03:54:33;;;;;;;30.88;18.35;;;7.30;99.90;;;;;;5032834;28;20380;-78
2021/10/21 03:56:59;;;;;;;24.88;15.60;;;7.40;99.90;;;;;;5033994;28;20098;-78
2021/10/21 03:59:25;;;;;;;23.50;14.25;;;7.30;99.90;;;;;;5034049;28;20060;-78
2021/10/21 04:01:53;;;;;;;23.63;15.18;;;7.40;99.90;;;;;;5034307;28;20136;-78
2021/10/21 04:04:20;;;;;;;23.17;15.30;;;7.40;99.90;;;;;;5020069;28;20030;-78
2021/10/21 04:06:46;;;;;;;28.70;17.70;;;7.40;99.90;;;;;;5012803;28;20022;-78
2021/10/21 04:09:11;;;;;;;20.67;15.93;;;7.50;99.90;;;;;;5014068;28;20029;-78
2021/10/21 04:11:37;;;;;;;22.92;16.02;;;7.50;99.90;;;;;;5012773;28;20029;-78
2021/10/21 04:14:03;;;;;;;22.30;14.75;;;7.60;99.90;;;;;;5013908;28;20068;-78
2021/10/21 04:16:29;;;;;;;25.88;15.80;;;7.60;99.90;;;;;;5012723;28;20113;-78
2021/10/21 04:18:55;;;;;;;21.27;14.23;;;7.60;99.90;;;;;;5012575;28;20177;-78
2021/10/21 04:21:21;;;;;;;29.80;16.65;;;7.60;99.90;;;;;;5013944;28;20475;-78
2021/10/21 04:23:46;;;;;;;28.80;15.18;;;7.60;99.90;;;;;;5013716;28;20480;-78
2021/10/21 04:26:12;;;;;;;26.45;15.75;;;7.60;99.90;;;;;;5013827;28;20022;-78
2021/10/21 04:28:38;;;;;;;28.13;15.90;;;7.60;99.90;;;;;;5012413;28;20022;-78
2021/10/21 04:31:04;;;;;;;26.65;15.80;;;7.60;99.90;;;;;;5013730;28;20053;-78
2021/10/21 04:33:30;;;;;;;32.17;16.95;;;7.60;99.90;;;;;;5018561;28;20107;-78
2021/10/21 04:35:56;;;;;;;25.40;15.45;;;7.50;99.90;;;;;;5017353;28;20053;-77
2021/10/21 04:38:21;;;;;;;22.20;15.55;;;7.60;99.90;;;;;;5021097;28;20401;-78
2021/10/21 04:40:47;;;;;;;27.05;16.23;;;7.60;99.90;;;;;;5028564;28;20033;-78
2021/10/21 04:43:13;;;;;;;26.88;15.85;;;7.60;99.90;;;;;;5020289;28;20018;-78
2021/10/21 04:45:38;;;;;;;25.27;15.50;;;7.60;99.90;;;;;;5024246;28;20021;-78
2021/10/21 04:48:04;;;;;;;28.35;16.08;;;7.50;99.90;;;;;;5026410;28;20083;-78
2021/10/21 04:50:30;;;;;;;27.95;14.60;;;7.50;99.90;;;;;;5017282;28;20014;-78
2021/10/21 04:52:56;;;;;;;23.38;15.13;;;7.50;99.90;;;;;;5007536;28;20538;-77
2021/10/21 04:55:22;;;;;;;27.60;15.77;;;7.50;99.90;;;;;;5022511;28;20414;-78
2021/10/21 04:57:48;;;;;;;23.10;14.45;;;7.40;99.90;;;;;;5023032;28;20037;-78
2021/10/21 05:00:15;;;;;;;29.13;15.77;;;7.40;99.90;;;;;;5024709;28;20106;-78
2021/10/21 05:02:40;;;;;;;35.67;16.85;;;7.40;99.90;;;;;;5023201;28;20025;-78
2021/10/21 05:05:06;;;;;;;26.60;16.02;;;7.30;99.90;;;;;;5027046;28;20442;-78
2021/10/21 05:07:32;;;;;;;23.40;14.50;;;7.30;99.90;;;;;;5018073;28;20028;-78
2021/10/21 05:09:58;;;;;;;21.52;13.82;;;7.20;99.90;;;;;;5016312;28;20013;-77
2021/10/21 05:12:24;;;;;;;22.98;16.05;;;7.20;99.90;;;;;;5027458;28;20442;-78
2021/10/21 05:14:51;;;;;;;25.70;14.30;;;7.20;99.90;;;;;;5024796;28;20121;-78
2021/10/21 05:17:16;;;;;;;25.25;15.65;;;7.10;99.90;;;;;;5027305;28;20386;-78
2021/10/21 05:19:42;;;;;;;27.95;16.95;;;7.10;99.90;;;;;;5022616;28;20113;-78
2021/10/21 05:22:08;;;;;;;25.02;15.25;;;7.10;99.90;;;;;;5020356;28;20101;-78
2021/10/21 05:24:34;;;;;;;29.65;15.52;;;7.10;99.90;;;;;;5024845;28;20080;-78
2021/10/21 05:26:59;;;;;;;24.63;16.17;;;7.10;99.90;;;;;;5024243;28;20018;-78
2021/10/21 05:29:26;;;;;;;29.38;16.67;;;7.10;99.90;;;;;;5019153;28;20476;-78
2021/10/21 05:31:52;;;;;;;33.03;16.98;;;7.10;99.90;;;;;;5023211;28;20038;-78
2021/10/21 05:34:18;;;;;;;25.40;15.68;;;7.00;99.90;;;;;;5020439;28;20492;-78
2021/10/21 05:36:44;;;;;;;29.42;16.35;;;7.00;99.90;;;;;;5023192;28;20032;-78
2021/10/21 05:39:10;;;;;;;32.05;16.88;;;7.00;99.90;;;;;;5026680;28;20521;-78
2021/10/21 05:41:36;;;;;;;30.10;16.27;;;7.00;99.90;;;;;;5020225;28;20132;-77
2021/10/21 05:44:02;;;;;;;24.83;16.83;;;7.00;99.90;;;;;;5031542;28;20463;-78
2021/10/21 05:46:27;;;;;;;33.10;17.40;;;7.00;99.90;;;;;;5012806;28;20026;-78
2021/10/21 05:48:53;;;;;;;29.30;15.68;;;6.90;99.90;;;;;;5017148;28;20033;-77
2021/10/21 05:51:19;;;;;;;35.97;19.00;;;6.90;99.90;;;;;;5031225;28;20022;-78
2021/10/21 05:53:45;;;;;;;34.17;18.67;;;6.90;99.90;;;;;;5029833;28;20034;-78
2021/10/21 05:56:11;;;;;;;38.63;21.75;;;6.90;99.90;;;;;;5025702;28;20041;-78
2021/10/21 05:58:38;;;;;;;41.55;19.65;;;7.00;99.90;;;;;;5030676;28;20068;-78
2021/10/21 06:01:04;;;;;;;38.00;19.02;;;7.00;99.90;;;;;;5031846;28;20045;-78
2021/10/21 06:03:35;;;;;;;36.35;18.25;;;7.10;99.90;;;;;;5020894;28;20030;-78
2021/10/21 06:06:05;;;;;;;26.33;16.23;;;7.20;99.90;;;;;;5015024;28;20021;-78
2021/10/21 06:08:32;;;;;;;23.75;16.23;;;7.30;99.90;;;;;;5030703;28;20029;-77
2021/10/21 06:11:01;;;;;;;24.52;15.98;;;7.40;99.90;;;;;;5034738;28;20079;-78
2021/10/21 06:13:27;;;;;;;34.03;16.25;;;7.50;99.90;;;;;;5035325;28;20461;-78
2021/10/21 06:15:53;;;;;;;37.22;21.02;;;7.60;99.90;;;;;;5030800;28;20130;-78
2021/10/21 06:18:19;;;;;;;26.85;16.50;;;7.70;99.90;;;;;;5026147;28;20438;-81
2021/10/21 06:20:45;;;;;;;30.50;18.95;;;7.90;99.90;;;;;;5026264;28;20040;-79
2021/10/21 06:23:11;;;;;;;32.33;16.58;;;8.10;99.90;;;;;;5029177;28;20079;-79
2021/10/21 06:25:37;;;;;;;32.55;18.67;;;8.30;99.90;;;;;;5044549;28;20090;-79
2021/10/21 06:28:03;;;;;;;42.20;21.60;;;8.60;99.90;;;;;;5025971;28;20025;-79
2021/10/21 06:30:29;;;;;;;56.70;28.08;;;8.80;99.90;;;;;;5026916;28;20135;-79
2021/10/21 06:32:55;;;;;;;33.80;22.17;;;9.00;99.90;;;;;;5023817;28;20639;-79
2021/10/21 06:35:21;;;;;;;36.83;21.58;;;9.10;99.90;;;;;;5022379;28;20057;-79
2021/10/21 06:37:48;;;;;;;31.63;20.75;;;9.30;99.90;;;;;;5022121;28;20430;-79
2021/10/21 06:40:15;;;;;;;33.15;18.00;;;9.50;99.90;;;;;;5019754;28;20075;-79
2021/10/21 06:42:41;;;;;;;28.30;18.20;;;9.70;99.90;;;;;;5018970;28;20022;-79
2021/10/21 06:45:10;;;;;;;31.95;17.60;;;9.90;99.90;;;;;;5020238;28;20461;-80
2021/10/21 06:47:40;;;;;;;26.63;15.68;;;10.10;99.90;;;;;;5012705;28;20104;-79
2021/10/21 06:50:09;;;;;;;27.98;17.23;;;10.30;99.90;;;;;;5012748;28;20022;-79
2021/10/21 06:52:38;;;;;;;26.63;15.95;;;10.60;99.90;;;;;;5028946;28;20048;-78
2021/10/21 06:55:04;;;;;;;22.67;12.95;;;10.80;99.90;;;;;;5033502;28;20076;-78
2021/10/21 06:57:29;;;;;;;27.52;15.45;;;11.00;99.90;;;;;;5028646;28;20454;-79
2021/10/21 06:59:55;;;;;;;26.30;14.80;;;11.20;99.90;;;;;;5029471;28;20055;-79
2021/10/21 07:02:21;;;;;;;25.25;14.48;;;11.30;99.90;;;;;;5030687;28;20062;-79
2021/10/21 07:04:47;;;;;;;26.45;15.30;;;11.50;99.90;;;;;;5031267;28;20479;-79
2021/10/21 07:07:12;;;;;;;24.02;14.43;;;11.70;99.90;;;;;;5018491;28;20038;-79
2021/10/21 07:09:38;;;;;;;17.58;11.02;;;11.80;99.90;;;;;;5013421;28;20077;-79
2021/10/21 07:12:04;;;;;;;16.75;12.05;;;12.00;99.90;;;;;;5022122;28;20033;-78
2021/10/21 07:14:30;;;;;;;14.73;10.48;;;12.20;99.90;;;;;;5027762;28;20033;-78
2021/10/21 07:16:56;;;;;;;16.55;11.10;;;12.30;99.90;;;;;;5027749;28;20063;-78
2021/10/21 07:19:22;;;;;;;17.83;12.02;;;12.50;99.90;;;;;;5026887;28;20018;-79
2021/10/21 07:21:47;;;;;;;15.93;10.38;;;12.60;99.90;;;;;;5013257;28;20030;-78
2021/10/21 07:24:13;;;;;;;16.33;10.13;;;12.80;99.90;;;;;;5012425;28;20022;-78
2021/10/21 07:26:41;;;;;;;13.77;10.13;;;12.90;99.90;;;;;;5011995;28;20046;-78
2021/10/21 07:29:07;;;;;;;15.50;11.10;;;13.00;99.90;;;;;;5020165;28;20478;-78
2021/10/21 07:31:32;;;;;;;17.63;10.77;;;13.10;99.90;;;;;;5019919;28;20091;-78
2021/10/21 07:33:58;;;;;;;16.25;10.88;;;13.30;99.10;;;;;;5021589;28;20087;-78
2021/10/21 07:36:24;;;;;;;17.08;10.93;;;13.40;99.20;;;;;;5019376;28;20400;-78
2021/10/21 07:38:50;;;;;;;19.70;11.55;;;13.50;96.60;;;;;;5020116;28;20029;-78
2021/10/21 07:41:17;;;;;;;16.17;11.65;;;13.60;93.30;;;;;;5020054;28;20030;-78
2021/10/21 07:43:43;;;;;;;16.30;12.10;;;13.70;93.10;;;;;;5020388;28;20067;-78
2021/10/21 07:46:09;;;;;;;17.83;12.30;;;13.70;90.10;;;;;;5018698;28;20393;-78
2021/10/21 07:48:34;;;;;;;16.10;11.20;;;13.80;89.10;;;;;;5021572;28;20036;-78
2021/10/21 07:51:00;;;;;;;15.13;10.20;;;13.90;89.20;;;;;;5016282;28;20030;-79
2021/10/21 07:53:30;;;;;;;16.17;11.25;;;13.90;89.90;;;;;;5010615;28;20117;-78
2021/10/21 07:55:56;;;;;;;13.98;10.05;;;14.00;92.10;;;;;;5011167;28;20053;-79
2021/10/21 07:58:22;;;;;;;14.70;11.43;;;14.00;88.90;;;;;;5010491;28;20030;-78
2021/10/21 08:00:48;;;;;;;16.30;11.60;;;14.10;87.50;;;;;;5026735;28;20025;-78
2021/10/21 08:03:14;;;;;;;18.20;12.23;;;14.20;88.10;;;;;;5050095;28;20049;-78
2021/10/21 08:05:40;;;;;;;15.23;11.52;;;14.20;87.10;;;;;;5034117;28;20091;-78
2021/10/21 08:08:06;;;;;;;14.02;10.95;;;14.30;87.90;;;;;;5031091;28;20056;-78
2021/10/21 08:10:32;;;;;;;17.65;10.63;;;14.40;87.50;;;;;;5029943;28;20737;-78
2021/10/21 08:12:59;;;;;;;16.63;10.90;;;14.40;86.00;;;;;;5030860;28;20037;-77
2021/10/21 08:15:25;;;;;;;17.17;11.80;;;14.50;85.80;;;;;;5025266;28;20582;-78
2021/10/21 08:17:53;;;;;;;13.77;10.73;;;14.50;84.20;;;;;;5030818;28;20037;-77
2021/10/21 08:20:19;;;;;;;16.17;11.57;;;14.60;84.10;;;;;;5029847;28;20108;-78
2021/10/21 08:22:45;;;;;;;18.65;12.07;;;14.60;82.90;;;;;;5030746;28;20517;-78
2021/10/21 08:25:12;;;;;;;13.50;10.80;;;14.70;84.20;;;;;;5030432;28;20056;-78
2021/10/21 08:27:39;;;;;;;18.13;13.13;;;14.90;86.00;;;;;;5018825;28;20069;-78
2021/10/21 08:30:06;;;;;;;19.63;14.32;;;15.00;86.90;;;;;;5022463;28;20025;-78
2021/10/21 08:32:32;;;;;;;20.15;13.95;;;14.90;83.50;;;;;;5023731;28;20125;-78
2021/10/21 08:34:58;;;;;;;18.63;14.30;;;15.00;84.00;;;;;;5026809;28;20440;-78
2021/10/21 08:37:24;;;;;;;22.25;14.77;;;15.00;84.40;;;;;;5010573;28;20026;-78
2021/10/21 08:39:50;;;;;;;43.40;16.30;;;15.00;83.80;;;;;;5022005;28;20041;-78
2021/10/21 08:42:18;;;;;;;23.35;14.10;;;14.90;83.90;;;;;;5029180;28;20113;-78
2021/10/21 08:44:45;;;;;;;22.40;15.55;;;14.80;86.10;;;;;;5031362;28;20391;-78
2021/10/21 08:47:12;;;;;;;24.25;15.52;;;14.80;88.90;;;;;;5029587;28;20030;-78
2021/10/21 08:49:39;;;;;;;21.15;14.32;;;14.70;88.60;;;;;;5031115;28;20099;-78
2021/10/21 08:52:06;;;;;;;18.27;14.27;;;14.60;89.40;;;;;;5029778;28;20046;-78
2021/10/21 08:54:32;;;;;;;21.42;14.55;;;14.50;91.60;;;;;;5017552;28;20025;-78
2021/10/21 08:57:02;;;;;;;24.10;14.80;;;14.40;94.00;;;;;;5019653;28;20033;-79
2021/10/21 08:59:27;;;;;;;17.77;13.15;;;14.40;94.60;;;;;;5028099;28;20021;-78
2021/10/21 09:02:10;;;;;;;33.15;23.27;;;14.30;95.70;;;;;;5028555;28;20048;-79
2021/10/21 09:10:11;;;;;;;206.88;122.95;;;14.10;93.60;;;;;;5029307;28;20076;-79
2021/10/21 09:12:43;;;;;;;113.70;69.70;;;14.00;94.40;;;;;;5029281;28;20041;-79
2021/10/21 09:15:15;;;;;;;80.68;43.92;;;14.00;94.20;;;;;;5020509;28;20025;-78
2021/10/21 09:17:42;;;;;;;60.05;28.48;;;14.00;94.00;;;;;;5016010;28;20045;-77
2021/10/21 09:20:26;;;;;;;32.63;19.85;;;14.00;96.20;;;;;;5009892;28;20453;-78
2021/10/21 09:23:00;;;;;;;30.63;19.67;;;13.90;96.60;;;;;;5010306;28;20526;-77
2021/10/21 09:25:29;;;;;;;23.73;15.27;;;13.90;97.60;;;;;;5009642;28;20034;-77
2021/10/21 09:27:58;;;;;;;26.50;17.33;;;13.90;97.80;;;;;;5009808;28;20038;-77
2021/10/21 09:30:32;;;;;;;23.42;14.25;;;13.90;97.20;;;;;;5017817;28;20132;-78
2021/10/21 09:33:13;;;;;;;227.45;115.50;;;13.90;99.00;;;;;;5039840;28;20537;-79
2021/10/21 09:35:49;;;;;;;90.82;33.65;;;13.90;99.90;;;;;;5012036;28;20029;-80
2021/10/21 09:38:18;;;;;;;40.67;21.63;;;14.00;99.40;;;;;;5016446;28;20038;-80
2021/10/21 09:40:44;;;;;;;38.78;20.55;;;14.10;99.90;;;;;;5035022;28;20014;-79
2021/10/21 09:43:14;;;;;;;49.15;27.75;;;14.20;99.90;;;;;;5031709;28;20477;-79
2021/10/21 09:45:43;;;;;;;26.00;16.92;;;14.30;98.10;;;;;;5024918;28;20037;-79
2021/10/21 09:48:09;;;;;;;28.88;18.67;;;14.30;96.30;;;;;;5027042;28;20029;-79
2021/10/21 09:50:45;;;;;;;26.30;17.65;;;14.40;95.60;;;;;;5033317;28;20033;-79
2021/10/21 09:53:14;;;;;;;29.80;17.88;;;14.40;96.80;;;;;;5032264;28;20575;-80
2021/10/21 09:55:46;;;;;;;23.45;14.43;;;14.40;95.70;;;;;;5033367;28;20026;-79
2021/10/21 09:58:13;;;;;;;29.13;18.23;;;14.40;94.30;;;;;;5032067;28;20029;-79
2021/10/21 10:00:41;;;;;;;23.58;15.40;;;14.40;95.90;;;;;;5034190;28;20063;-80
2021/10/21 10:03:14;;;;;;;28.73;16.48;;;14.50;94.00;;;;;;5034505;28;20037;-79
2021/10/21 10:05:47;;;;;;;23.88;15.38;;;14.40;94.40;;;;;;5034350;28;20037;-79
2021/10/21 10:08:16;;;;;;;22.73;15.68;;;14.40;95.30;;;;;;5032670;28;20132;-80
2021/10/21 10:10:44;;;;;;;28.90;16.25;;;14.40;95.80;;;;;;5031306;28;20069;-81
2021/10/21 10:13:11;;;;;;;29.33;19.40;;;14.50;95.70;;;;;;5029341;28;20132;-80
2021/10/21 10:15:37;;;;;;;31.00;17.77;;;14.50;97.20;;;;;;5012934;28;20104;-79
2021/10/21 10:18:06;;;;;;;27.73;17.33;;;14.40;96.60;;;;;;5021319;28;20455;-80
2021/10/21 10:20:33;;;;;;;26.15;18.05;;;14.30;95.10;;;;;;5030099;28;20487;-80
2021/10/21 10:23:05;;;;;;;29.08;17.75;;;14.30;95.80;;;;;;5030487;28;20033;-80
2021/10/21 10:25:30;;;;;;;27.27;18.20;;;14.30;97.40;;;;;;5030281;28;20021;-79
2021/10/21 10:27:58;;;;;;;27.77;19.02;;;14.30;98.70;;;;;;5030601;28;20032;-80
2021/10/21 10:30:44;;;;;;;29.48;19.48;;;14.30;97.60;;;;;;5029756;28;20020;-79
2021/10/21 10:33:11;;;;;;;26.85;17.88;;;14.30;97.30;;;;;;5033511;28;20045;-80
2021/10/21 10:35:38;;;;;;;27.13;18.13;;;14.30;99.00;;;;;;5033710;28;20045;-80
2021/10/21 10:38:06;;;;;;;26.52;17.88;;;14.20;99.60;;;;;;5028384;28;20056;-80
2021/10/21 10:40:43;;;;;;;25.95;17.45;;;14.30;99.20;;;;;;5030740;28;20030;-80
2021/10/21 10:43:17;;;;;;;20.98;15.07;;;14.30;99.90;;;;;;5028695;28;20048;-80
2021/10/21 10:45:46;;;;;;;23.65;16.60;;;14.30;99.80;;;;;;5014258;28;20026;-80
2021/10/21 10:48:12;;;;;;;27.10;16.67;;;14.20;99.90;;;;;;5009356;28;20034;-79
2021/10/21 10:50:44;;;;;;;24.27;16.23;;;14.10;99.90;;;;;;5010486;28;20052;-79
2021/10/21 10:53:10;;;;;;;23.83;17.13;;;14.10;99.90;;;;;;5009691;28;20100;-80
2021/10/21 10:55:49;;;;;;;26.98;17.15;;;14.00;99.90;;;;;;5010326;28;20028;-80
2021/10/21 10:58:27;;;;;;;21.42;16.10;;;14.00;99.90;;;;;;5008692;28;20126;-79
2021/10/21 11:00:56;;;;;;;25.20;16.30;;;14.10;99.90;;;;;;5019267;28;20514;-78
2021/10/21 11:03:31;;;;;;;26.10;17.52;;;14.20;99.90;;;;;;5030099;28;20033;-79
2021/10/21 11:05:59;;;;;;;22.83;16.15;;;14.30;99.90;;;;;;5031288;28;20055;-79
2021/10/21 11:08:47;;;;;;;21.98;15.25;;;14.50;99.90;;;;;;5029220;28;20510;-78
2021/10/21 11:11:35;;;;;;;24.20;15.68;;;14.50;99.90;;;;;;5030097;28;20026;-79
2021/10/21 11:14:12;;;;;;;21.95;14.38;;;14.50;99.90;;;;;;5031423;28;20060;-79
2021/10/21 11:16:47;;;;;;;22.60;14.27;;;14.60;99.90;;;;;;5027537;28;20097;-79
2021/10/21 11:19:34;;;;;;;20.25;15.18;;;14.60;99.90;;;;;;5031479;28;20033;-79
2021/10/21 11:22:00;;;;;;;20.42;15.43;;;14.60;99.90;;;;;;5031358;28;20029;-79
2021/10/21 11:24:47;;;;;;;20.35;14.32;;;14.60;99.90;;;;;;5030950;28;20037;-79
2021/10/21 11:27:16;;;;;;;19.00;12.57;;;14.60;99.90;;;;;;5031088;28;20022;-79
2021/10/21 11:29:43;;;;;;;19.40;13.88;;;14.60;99.90;;;;;;5028183;28;20805;-79
2021/10/21 11:32:10;;;;;;;16.92;11.80;;;14.50;99.90;;;;;;5029422;28;20028;-78
2021/10/21 11:34:37;;;;;;;17.20;12.07;;;14.50;99.90;;;;;;5031956;28;20406;-79
2021/10/21 11:37:04;;;;;;;21.58;11.70;;;14.50;99.90;;;;;;5023328;28;20034;-79
2021/10/21 11:39:35;;;;;;;14.80;11.13;;;14.50;99.90;;;;;;5029646;28;20046;-78
2021/10/21 11:42:04;;;;;;;13.75;10.60;;;14.40;99.90;;;;;;5030564;28;20092;-79
2021/10/21 11:44:30;;;;;;;15.38;10.75;;;14.40;99.90;;;;;;5029011;28;20045;-79
2021/10/21 11:47:01;;;;;;;11.73;9.23;;;14.40;99.90;;;;;;5030025;28;20021;-79
2021/10/21 11:49:39;;;;;;;16.38;9.70;;;14.40;99.70;;;;;;5028389;28;20057;-79
2021/10/21 11:52:10;;;;;;;13.70;9.57;;;14.50;99.20;;;;;;5010108;28;20061;-79
2021/10/21 11:54:38;;;;;;;11.25;8.00;;;14.40;98.00;;;;;;5010763;28;20456;-79
2021/10/21 11:57:05;;;;;;;13.48;8.45;;;14.40;96.40;;;;;;5024243;28;20017;-79
2021/10/21 11:59:40;;;;;;;14.10;8.15;;;14.40;96.90;;;;;;5030031;28;20033;-79
2021/10/21 12:02:16;;;;;;;15.20;7.55;;;14.40;97.20;;;;;;5030680;28;20061;-78
2021/10/21 12:04:43;;;;;;;12.65;7.63;;;14.50;96.00;;;;;;5029992;28;20022;-78
2021/10/21 12:07:10;;;;;;;12.50;7.65;;;14.40;95.60;;;;;;5010713;28;20026;-79
2021/10/21 12:09:37;;;;;;;11.07;7.97;;;14.50;94.50;;;;;;5011062;28;20072;-79
2021/10/21 12:12:12;;;;;;;12.32;6.85;;;14.50;94.50;;;;;;5011354;28;20387;-79
2021/10/21 12:14:42;;;;;;;11.38;6.45;;;14.50;94.50;;;;;;5010963;28;20053;-79
2021/10/21 12:17:08;;;;;;;13.70;7.30;;;14.40;94.30;;;;;;5008453;28;20025;-79
2021/10/21 12:19:34;;;;;;;9.75;6.05;;;14.50;93.60;;;;;;5024584;28;20034;-79
2021/10/21 12:22:18;;;;;;;11.30;6.85;;;14.50;93.90;;;;;;5017695;28;20033;-80
2021/10/21 12:24:45;;;;;;;9.18;6.57;;;14.50;94.30;;;;;;5021949;28;20026;-80
2021/10/21 12:27:19;;;;;;;7.97;6.50;;;14.50;94.30;;;;;;5015378;28;20030;-80
2021/10/21 12:29:45;;;;;;;10.48;7.15;;;14.40;94.40;;;;;;5019512;28;20386;-80
2021/10/21 12:32:12;;;;;;;11.45;7.18;;;14.40;94.30;;;;;;5018827;28;20033;-81
2021/10/21 12:34:39;;;;;;;10.52;7.75;;;14.40;94.60;;;;;;5019931;28;20034;-80
2021/10/21 12:37:11;;;;;;;8.40;7.35;;;14.40;95.60;;;;;;5023480;28;20025;-79
2021/10/21 12:39:37;;;;;;;8.52;6.60;;;14.40;94.30;;;;;;5020748;28;20071;-79